Time;durP1;ratioP1;P1;durP2;ratioP2;P2;SDS_P1;SDS_P2;PMS_P1;PMS_P2;Temp;Humidity;BMP_temperature;BMP_pressure;BME280_temperature;BME280_humidity;BME280_pressure;Samples;Min_cycle;Max_cycle;Signal;HPM_P1;HPM_P2
2022/07/08 00:00:48;;;;;;;4.35;3.17;;;;;;;25.18;54.66;94632.03;5069122;28;20661;-79
2022/07/08 00:03:15;;;;;;;8.88;3.40;;;;;;;25.24;54.74;94638.16;5070225;28;20233;-80
2022/07/08 00:05:43;;;;;;;3.60;3.30;;;;;;;25.23;55.22;94631.31;5071057;28;20178;-81
2022/07/08 00:08:10;;;;;;;4.10;3.70;;;;;;;25.19;55.33;94620.50;5069891;28;20212;-79
2022/07/08 00:10:37;;;;;;;6.57;3.53;;;;;;;25.16;55.51;94610.50;5071226;28;20201;-80
2022/07/08 00:13:04;;;;;;;8.13;3.80;;;;;;;25.11;55.67;94612.22;5070119;28;20190;-82
2022/07/08 00:15:31;;;;;;;8.90;3.22;;;;;;;25.09;55.78;94612.47;5071133;28;20198;-85
2022/07/08 00:17:58;;;;;;;4.97;3.63;;;;;;;25.06;55.86;94612.88;5070846;28;20212;-84
2022/07/08 00:20:25;;;;;;;4.88;3.67;;;;;;;25.03;55.92;94616.75;5071647;28;20587;-84
2022/07/08 00:22:53;;;;;;;10.23;3.83;;;;;;;24.86;56.16;94596.75;5070880;28;20225;-83
2022/07/08 00:25:20;;;;;;;5.10;4.13;;;;;;;24.98;56.11;94618.47;5070953;28;20183;-84
2022/07/08 00:27:47;;;;;;;6.35;3.88;;;;;;;24.96;56.32;94610.06;5071241;28;20196;-83
2022/07/08 00:30:14;;;;;;;6.57;3.78;;;;;;;24.92;56.36;94620.19;5070765;28;20681;-82
2022/07/08 00:32:42;;;;;;;13.98;4.07;;;;;;;24.76;56.47;94586.84;5072039;28;20191;-84
2022/07/08 00:35:09;;;;;;;6.38;3.50;;;;;;;24.88;56.83;94613.00;5071562;28;20193;-86
2022/07/08 00:37:36;;;;;;;5.10;3.97;;;;;;;24.81;56.98;94599.25;5070651;28;20687;-84
2022/07/08 00:40:06;;;;;;;10.52;4.10;;;;;;;24.84;57.20;94611.88;5071145;28;20205;-85
2022/07/08 00:42:33;;;;;;;4.13;3.53;;;;;;;24.81;57.16;94615.72;5071801;28;20588;-85
2022/07/08 00:45:00;;;;;;;16.80;4.18;;;;;;;24.81;57.31;94614.94;5071320;28;20206;-85
2022/07/08 00:47:27;;;;;;;8.68;3.90;;;;;;;24.72;57.52;94604.81;5071049;28;20284;-85
2022/07/08 00:49:54;;;;;;;7.13;3.97;;;;;;;24.71;57.79;94598.00;5071064;28;20186;-83
2022/07/08 00:52:21;;;;;;;5.78;3.35;;;;;;;24.76;57.67;94608.56;5071013;28;20197;-83
2022/07/08 00:54:49;;;;;;;5.70;3.58;;;;;;;24.75;57.74;94619.28;5071453;28;20206;-84
2022/07/08 00:57:18;;;;;;;4.40;3.90;;;;;;;24.70;57.79;94609.50;5070499;28;20217;-87
2022/07/08 00:59:46;;;;;;;10.68;4.55;;;;;;;24.73;58.01;94613.47;5071234;28;20198;-85
2022/07/08 01:02:13;;;;;;;14.40;4.30;;;;;;;24.73;58.10;94606.41;5070396;28;20196;-83
2022/07/08 01:04:42;;;;;;;4.68;4.15;;;;;;;24.73;58.09;94618.69;5070795;28;20592;-84
2022/07/08 01:07:09;;;;;;;5.68;4.15;;;;;;;24.72;58.37;94614.50;5070271;28;20261;-85
2022/07/08 01:09:36;;;;;;;4.22;3.90;;;;;;;24.68;58.28;94608.91;5070803;28;20665;-85
2022/07/08 01:12:04;;;;;;;4.75;3.95;;;;;;;24.66;58.64;94602.34;5070552;28;20236;-84
2022/07/08 01:14:33;;;;;;;4.90;4.07;;;;;;;24.66;58.48;94603.13;5071058;28;20205;-81
2022/07/08 01:16:59;;;;;;;7.50;3.85;;;;;;;24.65;58.71;94604.13;5070139;28;20183;-80
2022/07/08 01:19:26;;;;;;;3.80;3.50;;;;;;;24.59;58.85;94599.81;5071093;28;20190;-83
2022/07/08 01:21:55;;;;;;;5.85;4.45;;;;;;;24.65;59.03;94603.34;5070515;28;20186;-80
2022/07/08 01:24:22;;;;;;;4.00;3.60;;;;;;;24.65;59.02;94606.75;5074208;28;20233;-82
2022/07/08 01:26:49;;;;;;;5.85;4.00;;;;;;;24.64;58.84;94606.97;5073982;28;20186;-83
2022/07/08 01:29:16;;;;;;;4.28;3.88;;;;;;;24.61;58.90;94597.78;5074266;28;20868;-84
2022/07/08 01:31:43;;;;;;;4.10;3.70;;;;;;;24.59;58.86;94605.03;5074096;28;20194;-86
2022/07/08 01:34:10;;;;;;;4.20;3.38;;;;;;;24.53;59.04;94598.91;5074479;28;20596;-86
2022/07/08 01:36:37;;;;;;;12.82;4.25;;;;;;;24.56;59.05;94599.47;5073859;28;20201;-84
2022/07/08 01:39:05;;;;;;;5.25;4.10;;;;;;;24.55;59.35;94610.94;5074607;28;20194;-86
2022/07/08 01:41:32;;;;;;;3.90;3.60;;;;;;;24.45;59.31;94594.00;5074413;28;20205;-84
2022/07/08 01:43:59;;;;;;;4.30;3.90;;;;;;;24.48;59.35;94604.03;5074360;28;20214;-85
2022/07/08 01:46:26;;;;;;;6.68;4.07;;;;;;;24.51;59.71;94605.38;5074044;28;20681;-83
2022/07/08 01:48:53;;;;;;;4.13;3.72;;;;;;;24.49;59.68;94603.00;5074581;28;20189;-85
2022/07/08 01:51:20;;;;;;;4.28;3.65;;;;;;;24.48;59.65;94600.59;5074334;28;20545;-83
2022/07/08 01:53:47;;;;;;;4.82;4.00;;;;;;;24.47;59.81;94597.19;5073901;28;20194;-84
2022/07/08 01:56:15;;;;;;;4.55;4.15;;;;;;;24.46;59.68;94608.66;5073497;28;20191;-84
2022/07/08 01:58:42;;;;;;;5.88;4.38;;;;;;;24.46;59.88;94605.25;5074626;28;20787;-84
2022/07/08 02:01:09;;;;;;;5.88;3.72;;;;;;;24.38;59.92;94595.13;5073404;28;20545;-84
2022/07/08 02:03:35;;;;;;;3.80;3.28;;;;;;;24.40;59.83;94600.94;5073502;28;20222;-80
2022/07/08 02:06:02;;;;;;;3.90;3.45;;;;;;;24.33;60.01;94595.78;5073381;28;20653;-83
2022/07/08 02:08:29;;;;;;;4.57;4.25;;;;;;;24.39;60.31;94610.59;5073187;28;20669;-83
2022/07/08 02:13:42;;;;;;;7.85;4.82;;;;;;;24.34;60.47;94615.66;5073595;28;20192;-84
2022/07/08 02:16:09;;;;;;;4.47;4.07;;;;;;;24.34;60.09;94620.09;5073244;28;20193;-82
2022/07/08 02:18:36;;;;;;;4.82;4.38;;;;;;;24.32;60.21;94622.94;5073177;28;20197;-84
2022/07/08 02:21:03;;;;;;;5.13;4.63;;;;;;;24.29;60.28;94621.56;5072535;28;20657;-81
2022/07/08 02:23:30;;;;;;;5.43;4.43;;;;;;;24.23;60.48;94616.47;5073201;28;20218;-85
2022/07/08 02:25:56;;;;;;;4.35;3.95;;;;;;;24.26;60.35;94627.22;5073804;28;20193;-84
2022/07/08 02:28:23;;;;;;;5.13;4.57;;;;;;;24.25;60.55;94627.47;5073310;28;20178;-85
2022/07/08 02:30:52;;;;;;;4.72;4.32;;;;;;;24.23;60.38;94632.13;5073026;28;20187;-85
2022/07/08 02:33:18;;;;;;;5.22;4.72;;;;;;;24.19;60.58;94626.56;5073589;28;20178;-82
2022/07/08 02:35:45;;;;;;;4.90;4.45;;;;;;;24.21;60.44;94631.53;5071933;28;20193;-84
2022/07/08 02:38:12;;;;;;;5.90;4.65;;;;;;;24.19;60.72;94636.22;5072712;28;20206;-81
2022/07/08 02:40:39;;;;;;;7.35;4.82;;;;;;;24.18;60.74;94642.44;5072649;28;20708;-85
2022/07/08 02:43:09;;;;;;;5.20;4.70;;;;;;;24.16;60.41;94640.06;5073030;28;20217;-83
2022/07/08 02:45:37;;;;;;;6.53;4.93;;;;;;;24.09;60.55;94626.28;5073748;28;20186;-84
2022/07/08 02:48:05;;;;;;;5.47;4.97;;;;;;;24.12;60.41;94628.47;5073234;28;20226;-83
2022/07/08 02:50:32;;;;;;;11.30;4.75;;;;;;;24.09;60.40;94630.72;5072516;28;20198;-84
2022/07/08 02:52:59;;;;;;;7.88;4.13;;;;;;;23.92;60.39;94615.69;5072756;28;20209;-84
2022/07/08 02:55:26;;;;;;;9.15;4.28;;;;;;;24.04;60.37;94645.25;5072057;28;20261;-85
2022/07/08 02:57:53;;;;;;;4.85;4.20;;;;;;;24.02;60.34;94638.66;5073879;28;20179;-84
2022/07/08 03:00:20;;;;;;;4.55;4.15;;;;;;;23.96;60.51;94629.09;5072941;28;20183;-85
2022/07/08 03:02:47;;;;;;;5.97;3.92;;;;;;;23.85;60.77;94612.38;5073290;28;20190;-84
2022/07/08 03:05:15;;;;;;;6.10;4.18;;;;;;;23.88;60.74;94626.81;5074105;28;20222;-82
2022/07/08 03:07:42;;;;;;;5.65;4.32;;;;;;;23.95;60.77;94638.75;5074476;28;20209;-85
2022/07/08 03:10:10;;;;;;;4.30;4.00;;;;;;;23.94;60.92;94631.13;5074065;28;20282;-85
2022/07/08 03:12:36;;;;;;;5.15;4.55;;;;;;;23.94;60.76;94636.34;5073834;28;20182;-84
2022/07/08 03:15:04;;;;;;;4.50;4.10;;;;;;;23.92;60.58;94625.31;5073430;28;20205;-82
2022/07/08 03:17:31;;;;;;;4.82;4.40;;;;;;;23.93;60.84;94627.72;5073418;28;20184;-85
2022/07/08 03:19:57;;;;;;;5.00;4.15;;;;;;;23.87;61.08;94625.97;5074945;28;20289;-85
2022/07/08 03:22:26;;;;;;;4.43;4.03;;;;;;;23.93;60.74;94632.16;5075933;28;20198;-84
2022/07/08 03:24:53;;;;;;;5.43;4.50;;;;;;;23.85;61.17;94608.97;5075512;28;20218;-85
2022/07/08 03:27:20;;;;;;;5.63;4.30;;;;;;;23.93;60.74;94616.47;5075716;28;20703;-84
2022/07/08 03:29:46;;;;;;;5.28;4.80;;;;;;;23.86;60.86;94610.53;5074438;28;20190;-85
2022/07/08 03:32:13;;;;;;;5.07;4.20;;;;;;;23.99;60.83;94631.25;5072755;28;20194;-83
2022/07/08 03:34:40;;;;;;;8.35;4.28;;;;;;;23.97;60.81;94628.09;5072461;28;20186;-83
2022/07/08 03:37:07;;;;;;;7.78;4.55;;;;;;;23.95;60.44;94637.94;5072159;28;20194;-84
2022/07/08 03:39:35;;;;;;;5.10;4.25;;;;;;;23.86;60.22;94629.63;5072522;28;20197;-86
2022/07/08 03:42:01;;;;;;;4.53;4.13;;;;;;;23.88;60.49;94645.09;5071581;28;20205;-82
2022/07/08 03:44:29;;;;;;;6.43;4.05;;;;;;;23.86;60.55;94645.28;5072095;28;20206;-85
2022/07/08 03:46:56;;;;;;;5.70;3.95;;;;;;;23.87;60.52;94641.66;5070914;28;20229;-86
2022/07/08 03:49:23;;;;;;;4.30;3.90;;;;;;;23.85;60.65;94632.47;5071572;28;20198;-85
2022/07/08 03:51:50;;;;;;;5.22;4.18;;;;;;;24.00;60.47;94638.06;5071780;28;20689;-86
2022/07/08 03:54:16;;;;;;;4.78;4.28;;;;;;;24.04;60.28;94631.38;5071185;28;20193;-81
2022/07/08 03:56:45;;;;;;;5.97;3.83;;;;;;;24.17;60.20;94649.47;5072328;28;20194;-86
2022/07/08 03:59:12;;;;;;;9.30;4.18;;;;;;;24.23;59.92;94656.44;5072151;28;20187;-84
2022/07/08 04:01:38;;;;;;;4.20;3.90;;;;;;;24.18;59.86;94631.97;5071819;28;20182;-84
2022/07/08 04:04:05;;;;;;;4.88;4.35;;;;;;;24.26;59.64;94637.69;5071365;28;20608;-84
2022/07/08 04:06:32;;;;;;;4.53;4.07;;;;;;;24.38;59.79;94642.97;5071282;28;20190;-86
2022/07/08 04:08:59;;;;;;;6.28;4.97;;;;;;;24.41;59.70;94645.16;5069323;28;20222;-81
2022/07/08 04:11:26;;;;;;;6.88;4.90;;;;;;;24.42;59.49;94641.50;5070991;28;20218;-84
2022/07/08 04:13:54;;;;;;;7.03;4.38;;;;;;;24.49;59.33;94649.25;5071123;28;20201;-82
2022/07/08 04:16:21;;;;;;;5.40;4.75;;;;;;;24.52;59.35;94644.38;5071473;28;20194;-83
2022/07/08 04:18:48;;;;;;;8.48;5.13;;;;;;;24.57;59.02;94646.31;5051448;28;20292;-83
2022/07/08 04:21:15;;;;;;;8.20;5.18;;;;;;;24.39;59.02;94607.97;5050888;28;20198;-86
2022/07/08 04:23:42;;;;;;;5.70;5.20;;;;;;;24.62;58.78;94637.81;5068773;28;20237;-83
2022/07/08 04:26:09;;;;;;;10.57;4.93;;;;;;;24.64;58.45;94654.06;5071224;28;20194;-85
2022/07/08 04:28:36;;;;;;;8.23;5.47;;;;;;;24.62;58.33;94643.03;5071735;28;20194;-83
2022/07/08 04:31:04;;;;;;;7.53;5.00;;;;;;;24.63;58.18;94634.16;5071218;28;20202;-84
2022/07/08 04:33:31;;;;;;;7.25;4.72;;;;;;;24.71;57.51;94654.75;5071179;28;20188;-83
2022/07/08 04:35:58;;;;;;;8.07;4.82;;;;;;;24.74;57.30;94662.13;5071011;28;20277;-86
2022/07/08 04:38:25;;;;;;;9.38;4.72;;;;;;;24.62;56.85;94632.56;5071435;28;20277;-85
2022/07/08 04:40:57;;;;;;;4.68;3.88;;;;;;;24.77;56.81;94648.59;5071865;28;20190;-87
2022/07/08 04:43:23;;;;;;;4.68;4.28;;;;;;;24.82;56.39;94650.53;5071311;28;20201;-88
2022/07/08 04:45:50;;;;;;;4.63;4.13;;;;;;;24.85;56.40;94653.50;5071627;28;20218;-86
2022/07/08 04:48:19;;;;;;;5.05;4.47;;;;;;;24.89;56.40;94649.41;5071692;28;20230;-85
2022/07/08 04:50:45;;;;;;;5.25;4.30;;;;;;;24.94;56.29;94654.75;5071587;28;20189;-86
2022/07/08 04:53:12;;;;;;;5.10;4.55;;;;;;;25.00;56.13;94653.06;5070834;28;20596;-83
2022/07/08 04:55:39;;;;;;;6.00;4.60;;;;;;;25.04;56.01;94654.16;5071511;28;20206;-83
2022/07/08 04:58:06;;;;;;;5.03;4.53;;;;;;;25.09;55.80;94658.78;5072723;28;20198;-84
2022/07/08 05:00:34;;;;;;;5.18;4.22;;;;;;;25.05;55.78;94647.94;5075203;28;20220;-87
2022/07/08 05:03:01;;;;;;;6.43;4.28;;;;;;;25.10;55.70;94649.91;5074946;28;20193;-84
2022/07/08 05:05:30;;;;;;;6.15;4.30;;;;;;;25.14;55.49;94646.59;5074762;28;20233;-81
2022/07/08 05:07:58;;;;;;;5.63;4.68;;;;;;;25.19;55.82;94645.91;5075032;28;20196;-84
2022/07/08 05:10:25;;;;;;;5.28;4.50;;;;;;;25.24;55.76;94644.16;5075041;28;20194;-87
2022/07/08 05:12:52;;;;;;;5.05;4.13;;;;;;;25.30;55.44;94641.66;5075011;28;20212;-86
2022/07/08 05:15:19;;;;;;;6.55;4.28;;;;;;;25.51;56.11;94649.69;5074095;28;20190;-83
2022/07/08 05:17:47;;;;;;;7.22;4.45;;;;;;;25.75;58.67;94639.97;5074590;28;20635;-80
2022/07/08 05:20:14;;;;;;;3.97;3.50;;;;;;;26.17;59.38;94652.03;5073624;28;20202;-81
2022/07/08 05:22:42;;;;;;;6.78;4.00;;;;;;;26.63;59.33;94655.41;5074801;28;20201;-84
2022/07/08 05:25:10;;;;;;;5.75;4.53;;;;;;;27.15;58.88;94657.78;5076450;28;20300;-86
2022/07/08 05:27:37;;;;;;;5.88;3.95;;;;;;;27.71;57.58;94655.88;5075966;28;20190;-84
2022/07/08 05:30:06;;;;;;;5.53;3.58;;;;;;;28.32;56.08;94648.63;5074502;28;20191;-77
2022/07/08 05:32:33;;;;;;;9.30;3.83;;;;;;;28.96;54.97;94643.41;5075137;28;20197;-89
2022/07/08 05:35:00;;;;;;;6.82;3.55;;;;;;;29.66;52.86;94657.25;5074376;28;20207;-83
2022/07/08 05:37:27;;;;;;;4.88;3.63;;;;;;;30.22;51.53;94628.44;5073846;28;20229;-84
2022/07/08 05:39:55;;;;;;;5.57;3.20;;;;;;;31.08;49.99;94647.16;5073462;28;20194;-80
2022/07/08 05:42:22;;;;;;;4.07;3.10;;;;;;;31.82;48.82;94650.91;5074169;28;20182;-80
2022/07/08 05:44:49;;;;;;;4.45;3.05;;;;;;;32.53;47.34;94637.31;5069899;28;20216;-82
2022/07/08 05:47:16;;;;;;;3.70;3.35;;;;;;;33.34;46.01;94646.38;5072449;28;20317;-82
2022/07/08 05:49:44;;;;;;;5.90;3.15;;;;;;;34.08;44.62;94640.75;5071439;28;20201;-81
2022/07/08 05:52:11;;;;;;;4.72;3.38;;;;;;;34.82;43.27;94647.09;5070015;28;20206;-83
2022/07/08 05:54:39;;;;;;;7.55;3.45;;;;;;;35.55;41.96;94650.09;5073239;28;20611;-86
2022/07/08 05:57:07;;;;;;;5.60;3.20;;;;;;;36.15;40.43;94649.94;5068326;28;20197;-82
2022/07/08 05:59:34;;;;;;;7.57;3.20;;;;;;;36.63;39.17;94657.41;5069413;28;20642;-82
2022/07/08 06:02:01;;;;;;;3.50;3.20;;;;;;;37.08;38.07;94655.50;5071392;28;20880;-86
2022/07/08 06:04:28;;;;;;;6.22;3.20;;;;;;;37.40;37.40;94654.41;5074103;28;20704;-83
2022/07/08 06:06:55;;;;;;;5.07;3.35;;;;;;;37.65;36.40;94652.13;5077663;28;20206;-86
2022/07/08 06:09:23;;;;;;;5.65;3.13;;;;;;;37.87;35.44;94659.31;5075930;28;20187;-84
2022/07/08 06:11:50;;;;;;;5.28;3.70;;;;;;;38.05;35.21;94657.44;5073985;28;20203;-85
2022/07/08 06:14:18;;;;;;;6.80;3.85;;;;;;;38.24;34.75;94667.81;5070796;28;20265;-86
2022/07/08 06:16:47;;;;;;;6.28;4.20;;;;;;;38.36;34.76;94652.00;5068053;28;20277;-85
2022/07/08 06:19:14;;;;;;;7.47;4.65;;;;;;;38.50;34.42;94657.16;5071337;28;20654;-86
2022/07/08 06:21:41;;;;;;;6.43;4.35;;;;;;;38.64;33.80;94653.22;5071217;28;20186;-87
2022/07/08 06:24:08;;;;;;;9.07;3.92;;;;;;;38.83;33.79;94649.47;5071073;28;20244;-84
2022/07/08 06:26:35;;;;;;;6.50;3.58;;;;;;;39.07;33.79;94660.41;5071802;28;20284;-84
2022/07/08 06:29:02;;;;;;;6.15;3.25;;;;;;;39.34;33.46;94650.44;5070190;28;20245;-83
2022/07/08 06:31:30;;;;;;;4.75;3.58;;;;;;;39.64;33.28;94641.31;5072342;28;20685;-84
2022/07/08 06:33:58;;;;;;;4.63;2.88;;;;;;;40.06;32.76;94648.66;5067136;28;20645;-83
2022/07/08 06:36:25;;;;;;;9.10;3.55;;;;;;;40.41;32.83;94637.69;5070147;28;20294;-83
2022/07/08 06:38:52;;;;;;;5.97;3.35;;;;;;;40.86;32.07;94645.81;5071789;28;20191;-83
2022/07/08 06:41:20;;;;;;;5.63;2.83;;;;;;;41.28;31.77;94638.44;5071048;28;20577;-85
2022/07/08 06:43:47;;;;;;;3.92;3.35;;;;;;;41.47;31.59;94600.31;5073150;28;20260;-85
2022/07/08 06:46:15;;;;;;;3.00;2.80;;;;;;;42.15;31.20;94633.84;5072380;28;20235;-81
2022/07/08 06:48:43;;;;;;;3.88;3.20;;;;;;;42.31;30.41;94595.16;5070402;28;20182;-82
2022/07/08 06:51:11;;;;;;;3.55;3.25;;;;;;;42.96;29.91;94624.56;5072483;28;20195;-85
2022/07/08 06:56:22;;;;;;;4.95;3.50;;;;;;;43.77;28.66;94622.31;5071341;28;20640;-84
2022/07/08 06:58:49;;;;;;;3.78;3.38;;;;;;;44.12;28.18;94613.47;5069504;28;20212;-84
2022/07/08 07:01:16;;;;;;;3.63;3.08;;;;;;;44.35;27.91;94602.81;5069462;28;20204;-82
2022/07/08 07:03:44;;;;;;;2.88;2.67;;;;;;;44.68;27.92;94610.38;5071468;28;20194;-85
2022/07/08 07:06:11;;;;;;;6.30;3.40;;;;;;;45.04;26.99;94614.53;5070010;28;20588;-85
2022/07/08 07:08:38;;;;;;;4.55;2.78;;;;;;;45.31;26.89;94617.28;5065664;28;20194;-80
2022/07/08 07:11:06;;;;;;;3.00;2.70;;;;;;;45.54;26.08;94612.63;5073251;28;20190;-85
2022/07/08 07:13:32;;;;;;;3.67;2.80;;;;;;;45.78;25.91;94611.44;5072604;28;20197;-84
2022/07/08 07:15:59;;;;;;;4.63;2.80;;;;;;;46.00;26.11;94599.03;5071765;28;20213;-88
2022/07/08 07:18:26;;;;;;;4.63;3.00;;;;;;;46.08;25.23;94589.09;5069719;28;20186;-86
2022/07/08 07:20:54;;;;;;;3.17;2.63;;;;;;;46.37;25.34;94598.31;5071230;28;20197;-88
2022/07/08 07:23:21;;;;;;;4.03;2.47;;;;;;;46.43;24.70;94588.75;5071869;28;20637;-83
2022/07/08 07:25:48;;;;;;;2.30;2.20;;;;;;;46.70;24.61;94610.31;5071809;28;20228;-87
2022/07/08 07:28:15;;;;;;;2.65;2.20;;;;;;;46.80;24.08;94604.22;5068914;28;20285;-83
2022/07/08 07:30:42;;;;;;;2.45;2.28;;;;;;;46.92;24.44;94601.28;5071445;28;20190;-84
2022/07/08 07:33:09;;;;;;;2.78;2.40;;;;;;;46.95;23.89;94605.19;5071183;28;20197;-85
2022/07/08 07:35:35;;;;;;;2.50;2.30;;;;;;;47.11;24.01;94607.63;5070865;28;20182;-85
2022/07/08 07:38:04;;;;;;;2.50;2.30;;;;;;;47.19;23.91;94615.44;5070813;28;20223;-82
2022/07/08 07:40:31;;;;;;;3.05;2.10;;;;;;;47.27;23.75;94610.84;5070231;28;20201;-83
2022/07/08 07:42:57;;;;;;;3.05;2.10;;;;;;;47.20;23.79;94595.34;5068236;28;20205;-86
2022/07/08 07:45:24;;;;;;;2.85;2.35;;;;;;;47.40;23.13;94608.66;5078346;28;20209;-81
2022/07/08 07:47:51;;;;;;;3.22;2.05;;;;;;;47.44;23.37;94604.81;5071652;28;20228;-83
2022/07/08 07:50:18;;;;;;;3.22;2.33;;;;;;;47.49;23.19;94618.00;5073051;28;20653;-84
2022/07/08 07:52:45;;;;;;;4.22;2.17;;;;;;;47.48;23.15;94611.03;5075245;28;20193;-78
2022/07/08 07:55:13;;;;;;;2.53;2.33;;;;;;;47.53;23.03;94618.03;5073655;28;20205;-88
2022/07/08 07:57:40;;;;;;;2.63;2.13;;;;;;;47.45;23.09;94609.06;5074416;28;20204;-80
2022/07/08 08:00:09;;;;;;;2.50;2.30;;;;;;;47.33;23.03;94586.91;5072965;28;20266;-83
2022/07/08 08:02:36;;;;;;;3.50;2.40;;;;;;;47.39;22.34;94602.47;5071114;28;20187;-83
2022/07/08 08:05:04;;;;;;;2.40;2.20;;;;;;;47.21;23.08;94577.16;5071828;28;20240;-84
2022/07/08 08:07:30;;;;;;;3.83;2.25;;;;;;;47.37;22.86;94615.63;5071017;28;20190;-82
2022/07/08 08:09:57;;;;;;;2.42;2.20;;;;;;;47.30;22.94;94612.84;5072615;28;20669;-81
2022/07/08 08:12:26;;;;;;;2.88;2.28;;;;;;;47.13;22.14;94600.69;5083646;28;20181;-79
2022/07/08 08:14:52;;;;;;;2.85;2.25;;;;;;;47.01;22.53;94595.53;5083663;28;20204;-80
2022/07/08 08:17:19;;;;;;;2.67;2.47;;;;;;;46.95;22.36;94602.47;5082679;28;20182;-81
2022/07/08 08:19:46;;;;;;;5.05;2.58;;;;;;;46.93;22.73;94619.06;5087354;28;20190;-80
2022/07/08 08:22:13;;;;;;;2.53;2.20;;;;;;;46.83;22.44;94608.13;5084846;28;20899;-78
2022/07/08 08:24:40;;;;;;;2.30;2.20;;;;;;;46.76;22.92;94609.59;5087117;28;20190;-81
2022/07/08 08:27:07;;;;;;;2.88;2.40;;;;;;;46.69;22.87;94608.75;5084989;28;20196;-79
2022/07/08 08:29:35;;;;;;;2.80;2.25;;;;;;;46.58;22.65;94605.16;5080797;28;20576;-79
2022/07/08 08:32:02;;;;;;;2.45;2.25;;;;;;;46.49;22.67;94605.41;5078318;28;20197;-80
2022/07/08 08:34:29;;;;;;;3.03;2.03;;;;;;;46.37;22.66;94601.03;5082932;28;20209;-84
2022/07/08 08:36:56;;;;;;;1.95;1.85;;;;;;;46.24;22.86;94599.72;5081038;28;20214;-79
2022/07/08 08:39:23;;;;;;;2.13;1.90;;;;;;;46.11;22.53;94590.25;5083501;28;20190;-80
2022/07/08 08:41:49;;;;;;;2.10;1.90;;;;;;;46.01;22.96;94594.38;5084497;28;20686;-83
2022/07/08 08:44:17;;;;;;;2.40;2.20;;;;;;;45.88;22.79;94595.75;5082234;28;20190;-81
2022/07/08 08:46:45;;;;;;;1.98;1.88;;;;;;;45.75;22.96;94593.25;5086398;28;20362;-81
2022/07/08 08:49:12;;;;;;;2.50;2.30;;;;;;;45.64;22.70;94603.13;5082313;28;20207;-78
2022/07/08 08:51:41;;;;;;;2.60;2.40;;;;;;;45.51;22.65;94593.66;5085255;28;20194;-78
2022/07/08 08:54:08;;;;;;;2.90;2.10;;;;;;;45.38;23.10;94587.66;5083300;28;20191;-79
2022/07/08 08:56:35;;;;;;;2.72;2.00;;;;;;;45.24;23.21;94587.44;5082924;28;20186;-79
2022/07/08 08:59:03;;;;;;;2.33;2.13;;;;;;;45.09;23.33;94585.66;5080801;28;20186;-81
2022/07/08 09:01:32;;;;;;;2.45;2.25;;;;;;;44.93;23.28;94575.72;5078213;28;20193;-81
2022/07/08 09:04:00;;;;;;;2.25;2.03;;;;;;;44.77;23.58;94575.06;5083605;28;20185;-81
2022/07/08 09:06:27;;;;;;;2.63;2.17;;;;;;;44.56;23.73;94573.53;5077297;28;20209;-81
2022/07/08 09:08:54;;;;;;;2.20;2.10;;;;;;;44.36;23.93;94574.69;5080245;28;20197;-79
2022/07/08 09:11:21;;;;;;;2.90;2.38;;;;;;;44.18;23.87;94565.44;5085670;28;20186;-81
2022/07/08 09:14:13;;;;;;;3.65;2.50;;;;;;;43.99;23.92;94569.69;5076511;28;20201;-87
2022/07/08 09:16:40;;;;;;;5.10;2.38;;;;;;;43.44;23.69;94506.94;5071649;28;20204;-87
2022/07/08 09:19:17;;;;;;;4.28;2.50;;;;;;;43.55;24.34;94550.25;5071878;28;20205;-87
2022/07/08 09:21:53;;;;;;;3.65;2.17;;;;;;;43.29;23.96;94531.94;5071539;28;20189;-84
2022/07/08 09:24:21;;;;;;;2.55;2.35;;;;;;;43.18;24.37;94549.75;5071640;28;20211;-87
2022/07/08 09:26:48;;;;;;;2.30;2.10;;;;;;;42.82;24.08;94514.66;5071037;28;20217;-86
2022/07/08 09:29:15;;;;;;;2.30;2.10;;;;;;;42.81;24.49;94550.78;5072012;28;20190;-87
2022/07/08 09:31:41;;;;;;;3.55;2.20;;;;;;;42.63;24.45;94560.31;5072290;28;20198;-87
2022/07/08 09:34:11;;;;;;;3.92;2.15;;;;;;;42.46;24.77;94553.31;5071308;28;20201;-88
2022/07/08 09:36:49;;;;;;;4.72;2.40;;;;;;;42.29;24.47;94545.56;5071803;28;20672;-88
2022/07/08 09:39:25;;;;;;;2.40;2.20;;;;;;;42.13;24.89;94532.03;5072467;28;20192;-87
2022/07/08 09:41:53;;;;;;;3.78;2.33;;;;;;;41.97;25.22;94532.00;5071677;28;20645;-88
2022/07/08 09:44:23;;;;;;;2.40;2.15;;;;;;;41.81;25.41;94531.16;5073851;28;20182;-87
2022/07/08 09:46:50;;;;;;;3.05;2.03;;;;;;;41.63;25.35;94527.91;5075014;28;20765;-87
2022/07/08 09:49:28;;;;;;;2.58;1.95;;;;;;;41.22;25.57;94494.81;5075298;28;20196;-88
2022/07/08 09:51:57;;;;;;;3.08;2.33;;;;;;;41.27;25.88;94532.16;5074597;28;20251;-88
2022/07/08 09:54:25;;;;;;;4.22;2.53;;;;;;;41.00;26.00;94519.44;5074933;28;20571;-87
2022/07/08 09:56:59;;;;;;;2.40;2.30;;;;;;;40.90;26.09;94526.00;5074354;28;20666;-88
2022/07/08 09:59:27;;;;;;;5.88;2.60;;;;;;;40.70;26.39;94527.66;5074886;28;20289;-86
2022/07/08 10:01:54;;;;;;;2.35;2.25;;;;;;;40.46;26.63;94514.97;5074869;28;20592;-89
2022/07/08 10:04:22;;;;;;;2.25;2.10;;;;;;;40.31;26.56;94520.94;5074340;28;20262;-85
2022/07/08 10:06:50;;;;;;;2.10;2.00;;;;;;;40.09;26.65;94503.31;5074212;28;20575;-88
2022/07/08 10:09:18;;;;;;;3.08;2.47;;;;;;;40.00;26.64;94508.75;5074472;28;20191;-86
2022/07/08 10:11:47;;;;;;;2.13;2.03;;;;;;;39.88;26.47;94500.66;5074414;28;20179;-88
2022/07/08 10:14:14;;;;;;;2.55;2.33;;;;;;;39.77;26.58;94502.97;5074457;28;20201;-87
2022/07/08 10:16:42;;;;;;;4.10;2.35;;;;;;;39.62;26.88;94484.78;5074322;28;20567;-86
2022/07/08 10:19:14;;;;;;;3.28;1.95;;;;;;;39.48;27.28;94492.28;5073921;28;20194;-88
2022/07/08 10:21:44;;;;;;;2.95;2.10;;;;;;;39.20;27.50;94465.97;5074328;28;20186;-87
2022/07/08 10:24:17;;;;;;;2.50;2.30;;;;;;;39.20;27.14;94476.69;5073456;28;20194;-88
2022/07/08 10:26:46;;;;;;;3.38;2.08;;;;;;;39.04;27.48;94470.34;5074013;28;20213;-87
2022/07/08 10:29:14;;;;;;;2.35;2.00;;;;;;;38.90;27.39;94457.19;5073995;28;20277;-87
2022/07/08 10:31:46;;;;;;;2.97;2.17;;;;;;;38.90;27.19;94459.84;5073769;28;20201;-88
2022/07/08 10:34:13;;;;;;;2.10;2.00;;;;;;;38.83;27.35;94459.59;5074242;28;20191;-87
2022/07/08 10:36:48;;;;;;;2.17;2.03;;;;;;;38.65;27.54;94443.59;5073972;28;20193;-84
2022/07/08 10:39:15;;;;;;;2.38;2.17;;;;;;;38.68;27.28;94458.19;5074122;28;20190;-87
2022/07/08 10:41:56;;;;;;;2.65;2.45;;;;;;;38.65;27.43;94461.53;5074322;28;20197;-87
2022/07/08 10:44:52;;;;;;;2.28;2.13;;;;;;;38.55;27.46;94457.31;5074947;28;20194;-85
2022/07/08 10:47:25;;;;;;;2.35;2.25;;;;;;;38.54;27.69;94468.31;5087330;28;20271;-86
2022/07/08 10:49:52;;;;;;;2.45;2.30;;;;;;;38.49;27.58;94476.53;5090073;28;20275;-84
2022/07/08 10:52:21;;;;;;;4.60;2.05;;;;;;;38.39;27.77;94475.00;5089302;28;20194;-86
2022/07/08 10:54:47;;;;;;;2.42;2.20;;;;;;;38.37;28.11;94471.84;5089016;28;20178;-88
2022/07/08 10:57:27;;;;;;;2.35;2.17;;;;;;;38.33;27.97;94474.34;5074263;28;20201;-89
2022/07/08 11:00:08;;;;;;;4.80;2.10;;;;;;;38.29;28.05;94469.94;5074258;28;20204;-88
2022/07/08 11:02:40;;;;;;;2.67;2.35;;;;;;;38.14;27.95;94442.66;5073205;28;20196;-88
2022/07/08 11:05:07;;;;;;;2.42;2.15;;;;;;;38.10;28.09;94447.06;5073698;28;20202;-88
2022/07/08 11:07:34;;;;;;;2.42;2.03;;;;;;;37.96;27.97;94427.75;5072797;28;20228;-89
2022/07/08 11:10:07;;;;;;;2.00;1.90;;;;;;;38.02;28.05;94447.84;5073344;28;20197;-89
2022/07/08 11:12:36;;;;;;;2.45;1.95;;;;;;;37.98;28.18;94449.59;5073710;28;20187;-89
2022/07/08 11:15:06;;;;;;;3.03;2.10;;;;;;;37.87;28.10;94429.66;5073238;28;20190;-86
2022/07/08 11:17:35;;;;;;;2.45;2.25;;;;;;;37.85;28.28;94434.50;5072718;28;20182;-87
2022/07/08 11:20:05;;;;;;;2.13;2.03;;;;;;;37.83;28.36;94442.84;5073688;28;20186;-87
2022/07/08 11:22:36;;;;;;;1.83;1.73;;;;;;;37.54;28.17;94400.00;5072931;28;20190;-88
2022/07/08 11:25:04;;;;;;;2.30;2.10;;;;;;;37.63;28.55;94430.91;5072905;28;20635;-88
2022/07/08 11:27:33;;;;;;;2.20;2.00;;;;;;;37.50;28.51;94407.84;5072800;28;20250;-85
2022/07/08 11:30:03;;;;;;;5.80;2.15;;;;;;;37.57;28.65;94428.72;5073256;28;20285;-87
2022/07/08 11:32:31;;;;;;;2.67;2.00;;;;;;;37.50;28.77;94420.41;5074589;28;20183;-87
2022/07/08 11:34:58;;;;;;;2.38;2.25;;;;;;;37.16;28.82;94382.69;5077766;28;20183;-88
2022/07/08 11:37:25;;;;;;;3.33;2.22;;;;;;;37.26;29.01;94410.94;5074092;28;20222;-86
2022/07/08 11:39:53;;;;;;;3.63;2.50;;;;;;;37.16;29.45;94420.03;5077043;28;20649;-87
2022/07/08 11:42:20;;;;;;;3.85;2.42;;;;;;;37.00;29.18;94408.25;5075632;28;20202;-84